createdAt,value
2022-10-21T00:00:14.710Z,18.55
2022-10-21T00:04:15.090Z,18.40
2022-10-21T00:08:15.662Z,18.08
2022-10-21T00:12:18.641Z,17.99
2022-10-21T00:16:21.877Z,18.13
2022-10-21T00:24:42.714Z,17.98
2022-10-21T00:28:46.112Z,17.95
2022-10-21T00:32:46.183Z,18.05
2022-10-21T00:36:46.310Z,18.16
2022-10-21T00:40:46.410Z,18.12
2022-10-21T00:45:23.390Z,18.24
2022-10-21T00:49:37.084Z,18.27
2022-10-21T00:53:42.524Z,18.37
2022-10-21T00:57:42.874Z,18.28
2022-10-21T01:01:46.070Z,18.00
2022-10-21T01:05:47.894Z,17.91
2022-10-21T01:09:47.985Z,17.95
2022-10-21T01:14:29.536Z,17.92
2022-10-21T01:18:42.270Z,18.00
2022-10-21T01:23:23.169Z,17.88
2022-10-21T01:27:50.635Z,17.74
2022-10-21T01:32:05.138Z,17.61
2022-10-21T01:36:25.264Z,17.48
2022-10-21T01:40:32.736Z,17.16
2022-10-21T01:44:43.697Z,17.08
2022-10-21T01:48:53.811Z,16.95
2022-10-21T01:53:00.485Z,17.00
2022-10-21T01:57:02.502Z,16.87
2022-10-21T02:01:05.919Z,16.80
2022-10-21T02:05:17.359Z,16.67
2022-10-21T02:09:17.406Z,16.76
2022-10-21T02:13:25.917Z,16.50
2022-10-21T02:17:29.639Z,16.56
2022-10-21T02:21:39.262Z,16.71
2022-10-21T02:25:43.913Z,16.74
2022-10-21T02:29:49.642Z,16.63
2022-10-21T02:34:07.527Z,16.78
2022-10-21T02:38:22.532Z,16.70
2022-10-21T02:42:31.560Z,17.07
2022-10-21T02:46:40.384Z,16.79
2022-10-21T02:50:40.615Z,16.98
2022-10-21T02:54:43.374Z,16.99
2022-10-21T02:58:43.459Z,16.96
2022-10-21T03:02:43.564Z,17.00
2022-10-21T03:06:43.620Z,17.06
2022-10-21T03:10:49.118Z,16.91
2022-10-21T03:14:50.684Z,17.26
2022-10-21T03:18:50.743Z,17.07
2022-10-21T03:22:50.775Z,16.83
2022-10-21T03:26:53.445Z,17.06
2022-10-21T03:30:53.512Z,17.21
2022-10-21T03:34:53.856Z,17.29
2022-10-21T03:38:53.943Z,17.15
2022-10-21T03:42:56.630Z,17.15
2022-10-21T03:46:56.763Z,17.07
2022-10-21T03:50:58.898Z,17.15
2022-10-21T03:54:59.029Z,17.14
2022-10-21T03:59:01.676Z,17.08
2022-10-21T04:03:01.806Z,17.34
2022-10-21T04:07:01.981Z,17.24
2022-10-21T04:11:02.732Z,17.24
2022-10-21T04:15:05.749Z,17.11
2022-10-21T04:19:05.984Z,17.23
2022-10-21T04:23:06.089Z,17.29
2022-10-21T04:27:06.424Z,17.10
2022-10-21T04:31:09.149Z,17.18
2022-10-21T04:35:10.067Z,17.23
2022-10-21T04:39:11.368Z,17.15
2022-10-21T04:43:11.704Z,17.30
2022-10-21T04:47:14.400Z,17.17
2022-10-21T04:51:14.522Z,17.07
2022-10-21T04:55:14.645Z,17.07
2022-10-21T04:59:16.023Z,16.94
2022-10-21T05:03:18.734Z,17.07
2022-10-21T05:07:19.018Z,17.16
2022-10-21T05:11:19.096Z,17.14
2022-10-21T05:15:19.599Z,17.18
2022-10-21T05:19:25.595Z,17.01
2022-10-21T05:23:29.002Z,17.08
2022-10-21T05:27:29.136Z,17.25
2022-10-21T05:31:29.646Z,17.25
2022-10-21T05:35:32.447Z,17.09
2022-10-21T05:39:32.655Z,17.10
2022-10-21T05:43:32.976Z,17.08
2022-10-21T05:47:33.955Z,17.25
2022-10-21T05:51:36.711Z,17.27
2022-10-21T05:55:37.027Z,17.17
2022-10-21T05:59:39.140Z,17.23
2022-10-21T06:03:39.514Z,17.46
2022-10-21T06:07:42.545Z,17.50
2022-10-21T06:11:51.737Z,16.50
2022-10-21T06:15:51.981Z,17.81
2022-10-21T06:19:52.162Z,17.57
2022-10-21T06:23:56.540Z,17.70
2022-10-21T06:27:59.634Z,17.59
2022-10-21T06:31:59.812Z,17.74
2022-10-21T06:36:00.194Z,17.85
2022-10-21T06:40:04.638Z,18.10
2022-10-21T06:44:04.718Z,18.22
2022-10-21T06:48:05.087Z,18.37
2022-10-21T06:52:05.335Z,18.08
2022-10-21T06:56:13.719Z,18.18
2022-10-21T07:00:17.044Z,18.30
2022-10-21T07:04:17.185Z,18.64
2022-10-21T07:08:19.814Z,18.67
2022-10-21T07:12:25.127Z,18.87
2022-10-21T07:16:29.085Z,18.90
2022-10-21T07:20:29.324Z,18.78
2022-10-21T07:24:29.536Z,18.89
2022-10-21T07:28:32.288Z,18.75
2022-10-21T07:32:53.536Z,19.09
2022-10-21T07:36:54.021Z,19.48
2022-10-21T07:40:54.129Z,19.65
2022-10-21T07:44:59.535Z,19.44
2022-10-21T07:49:00.121Z,19.44
2022-10-21T07:53:10.927Z,19.23
2022-10-21T07:57:12.542Z,19.28
2022-10-21T08:01:16.052Z,19.18
2022-10-21T08:05:16.405Z,19.31
2022-10-21T08:09:17.206Z,19.30
2022-10-21T08:13:17.430Z,19.60
2022-10-21T08:17:20.474Z,19.96
2022-10-21T08:21:20.630Z,20.14
2022-10-21T08:25:21.091Z,20.29
2022-10-21T08:29:21.307Z,20.00
2022-10-21T08:33:24.026Z,20.20
2022-10-21T08:37:25.672Z,20.03
2022-10-21T08:42:17.086Z,20.10
2022-10-21T08:46:34.306Z,20.74
2022-10-21T08:56:02.403Z,20.19
2022-10-21T09:00:41.037Z,19.61
2022-10-21T09:17:38.158Z,21.27
2022-10-21T09:49:54.054Z,21.58
2022-10-21T09:54:20.239Z,21.23
2022-10-21T09:58:53.467Z,21.29
2022-10-21T10:02:54.995Z,20.98
2022-10-21T10:06:55.394Z,21.00
2022-10-21T10:11:04.927Z,20.94
2022-10-21T10:15:30.836Z,21.05
2022-10-21T10:19:32.340Z,20.96
2022-10-21T10:23:32.394Z,21.22
2022-10-21T10:27:32.649Z,21.10
2022-10-21T10:31:38.952Z,20.95
2022-10-21T10:35:42.171Z,20.80
2022-10-21T10:39:44.794Z,20.89
2022-10-21T10:43:52.924Z,21.36
2022-10-21T10:48:05.057Z,21.81
2022-10-21T10:52:22.435Z,22.01
2022-10-21T10:56:31.841Z,21.60
2022-10-21T11:00:46.370Z,21.90
2022-10-21T11:05:11.756Z,21.83
2022-10-21T11:09:12.473Z,21.80
2022-10-21T11:13:18.272Z,21.74
2022-10-21T11:17:26.558Z,21.51
2022-10-21T11:21:47.380Z,21.99
2022-10-21T11:25:57.335Z,21.94
2022-10-21T11:30:11.478Z,22.28
2022-10-21T11:34:25.335Z,22.11
2022-10-21T11:39:11.069Z,21.86
2022-10-21T11:43:31.431Z,21.41
2022-10-21T11:47:44.574Z,21.22
2022-10-21T11:52:00.885Z,20.89
2022-10-21T11:56:20.218Z,20.75
2022-10-21T12:00:25.604Z,21.04
2022-10-21T12:04:37.247Z,21.39
2022-10-21T12:08:48.285Z,21.79
2022-10-21T12:12:58.736Z,21.73
2022-10-21T12:17:02.970Z,21.59
2022-10-21T12:21:03.862Z,21.57
2022-10-21T12:25:29.166Z,21.55
2022-10-21T12:30:00.938Z,22.17
2022-10-21T12:34:08.124Z,21.89
2022-10-21T12:38:31.582Z,22.13
2022-10-21T12:42:44.384Z,22.19
2022-10-21T12:48:00.586Z,21.79
2022-10-21T12:52:31.646Z,22.28
2022-10-21T12:56:47.886Z,22.86
2022-10-21T13:01:03.110Z,23.47
2022-10-21T13:05:08.647Z,23.70
2022-10-21T13:09:43.280Z,23.95
2022-10-21T13:25:26.909Z,24.09
2022-10-21T13:29:48.269Z,24.75
2022-10-21T13:33:55.462Z,25.10
2022-10-21T13:42:41.592Z,26.22
2022-10-21T13:46:45.063Z,26.78
2022-10-21T13:50:48.599Z,27.15
2022-10-21T13:54:49.005Z,27.44
2022-10-21T13:58:52.639Z,27.37
2022-10-21T14:02:55.941Z,27.69
2022-10-21T14:07:00.979Z,28.05
2022-10-21T14:11:04.413Z,28.37
2022-10-21T14:15:19.284Z,28.32
2022-10-21T14:19:26.265Z,27.95
2022-10-21T14:23:27.414Z,27.32
2022-10-21T14:27:32.189Z,26.62
2022-10-21T14:31:42.983Z,25.96
2022-10-21T14:36:07.072Z,25.98
2022-10-21T14:40:22.440Z,25.53
2022-10-21T14:44:26.601Z,25.27
2022-10-21T14:48:34.153Z,25.17
2022-10-21T14:52:42.711Z,25.04
2022-10-21T14:56:46.806Z,24.80
2022-10-21T15:00:47.126Z,24.46
2022-10-21T15:04:58.117Z,23.93
2022-10-21T15:09:20.525Z,23.57
2022-10-21T15:13:22.489Z,23.44
2022-10-21T15:17:22.741Z,23.21
2022-10-21T15:21:39.819Z,23.30
2022-10-21T15:25:41.277Z,23.35
2022-10-21T15:29:47.996Z,23.41
2022-10-21T15:33:50.749Z,23.23
2022-10-21T15:37:55.285Z,23.24
2022-10-21T15:41:57.472Z,23.14
2022-10-21T15:45:57.748Z,23.45
2022-10-21T15:49:58.044Z,23.25
2022-10-21T15:54:00.820Z,23.24
2022-10-21T15:58:00.976Z,23.12
2022-10-21T16:02:02.315Z,23.07
2022-10-21T16:06:02.473Z,22.94
2022-10-21T16:10:15.178Z,22.76
2022-10-21T16:14:15.421Z,22.63
2022-10-21T16:18:17.686Z,22.41
2022-10-21T16:22:23.892Z,22.33
2022-10-21T16:26:33.200Z,22.30
2022-10-21T16:30:39.196Z,22.11
2022-10-21T16:34:39.494Z,21.65
2022-10-21T16:38:39.581Z,21.96
2022-10-21T16:42:42.509Z,21.81
2022-10-21T16:46:49.797Z,21.73
2022-10-21T16:50:50.086Z,21.66
2022-10-21T16:54:50.360Z,21.51
2022-10-21T16:58:53.777Z,21.51
2022-10-21T17:02:54.509Z,21.59
2022-10-21T17:06:57.305Z,21.50
2022-10-21T17:11:00.684Z,21.61
2022-10-21T17:15:03.949Z,21.59
2022-10-21T17:19:04.133Z,21.57
2022-10-21T17:23:05.202Z,21.58
2022-10-21T17:27:05.392Z,21.45
2022-10-21T17:31:08.734Z,21.60
2022-10-21T17:35:17.084Z,21.38
2022-10-21T17:39:17.660Z,21.41
2022-10-21T17:43:18.983Z,21.30
2022-10-21T17:47:21.697Z,21.45
2022-10-21T17:51:22.489Z,21.30
2022-10-21T17:55:23.029Z,21.23
2022-10-21T17:59:23.280Z,21.20
2022-10-21T18:03:26.399Z,21.05
2022-10-21T18:07:26.533Z,20.76
2022-10-21T18:11:26.737Z,21.02
2022-10-21T18:15:28.411Z,21.04
2022-10-21T18:19:31.240Z,21.23
2022-10-21T18:23:31.601Z,21.02
2022-10-21T18:27:31.926Z,21.15
2022-10-21T18:31:35.444Z,21.05
2022-10-21T18:35:38.226Z,21.26
2022-10-21T18:39:38.456Z,21.16
2022-10-21T18:43:41.525Z,20.99
2022-10-21T18:47:42.236Z,21.01
2022-10-21T18:51:46.071Z,21.21
2022-10-21T18:55:46.338Z,21.12
2022-10-21T18:59:46.522Z,20.87
2022-10-21T19:03:47.603Z,21.04
2022-10-21T19:07:50.444Z,21.06
2022-10-21T19:11:51.069Z,20.87
2022-10-21T19:15:51.245Z,20.98
2022-10-21T19:19:52.871Z,21.11
2022-10-21T19:23:56.522Z,21.02
2022-10-21T19:27:56.617Z,21.20
2022-10-21T19:31:57.674Z,21.07
2022-10-21T19:35:57.793Z,20.94
2022-10-21T19:40:00.687Z,20.95
2022-10-21T19:44:01.615Z,20.78
2022-10-21T19:48:01.713Z,20.67
2022-10-21T19:52:05.932Z,20.81
2022-10-21T19:56:11.156Z,20.72
2022-10-21T20:00:13.965Z,20.68
2022-10-21T20:04:15.378Z,19.96
2022-10-21T20:08:15.608Z,20.52
2022-10-21T20:12:18.512Z,20.21
2022-10-21T20:16:20.869Z,20.32
2022-10-21T20:20:23.879Z,20.29
2022-10-21T20:24:24.060Z,20.21
2022-10-21T20:28:28.967Z,20.40
2022-10-21T20:32:31.808Z,20.40
2022-10-21T20:36:35.275Z,20.42
2022-10-21T20:40:35.422Z,20.43
2022-10-21T20:44:38.370Z,20.61
2022-10-21T20:48:42.524Z,20.58
2022-10-21T20:52:42.698Z,20.61
2022-10-21T20:56:44.685Z,20.38
2022-10-21T21:00:47.458Z,20.33
2022-10-21T21:04:47.603Z,20.34
2022-10-21T21:09:02.841Z,20.34
2022-10-21T21:13:08.268Z,20.33
2022-10-21T21:17:11.179Z,20.44
2022-10-21T21:21:15.379Z,20.58
2022-10-21T21:25:15.495Z,20.67
2022-10-21T21:29:16.343Z,20.44
2022-10-21T21:33:19.241Z,20.53
2022-10-21T21:37:19.332Z,20.60
2022-10-21T21:41:20.244Z,20.47
2022-10-21T21:45:20.432Z,20.42
2022-10-21T21:49:23.199Z,20.31
2022-10-21T21:53:25.029Z,20.37
2022-10-21T21:57:28.663Z,20.54
2022-10-21T22:01:32.031Z,20.33
2022-10-21T22:05:35.069Z,20.32
2022-10-21T22:09:35.347Z,20.14
2022-10-21T22:13:35.590Z,20.07
2022-10-21T22:17:35.717Z,20.07
2022-10-21T22:21:38.405Z,19.97
2022-10-21T22:25:38.705Z,19.88
2022-10-21T22:29:38.924Z,20.07
2022-10-21T22:33:40.333Z,20.04
2022-10-21T22:37:43.190Z,20.24
2022-10-21T22:41:43.461Z,20.22
2022-10-21T22:45:46.124Z,20.54
2022-10-21T22:49:49.361Z,20.57
2022-10-21T22:53:55.441Z,20.44
2022-10-21T22:57:57.018Z,20.24
2022-10-21T23:01:57.140Z,20.19
2022-10-21T23:05:57.277Z,20.33
2022-10-21T23:10:01.403Z,20.28
2022-10-21T23:14:03.056Z,20.13
2022-10-21T23:18:08.668Z,20.26
2022-10-21T23:22:08.802Z,20.19
2022-10-21T23:26:11.568Z,20.11
2022-10-21T23:30:13.672Z,20.22
2022-10-21T23:34:13.804Z,20.32
2022-10-21T23:38:13.914Z,20.31
2022-10-21T23:42:16.587Z,20.05
2022-10-21T23:46:16.905Z,20.06
2022-10-21T23:50:17.435Z,20.38
2022-10-21T23:54:17.542Z,20.18
2022-10-21T23:58:20.265Z,20.11
